createdAt,value
2022-12-03T00:00:13.405Z,85.51
2022-12-03T00:02:41.592Z,84.59
2022-12-03T00:05:09.073Z,85.40
2022-12-03T00:07:35.987Z,83.87
2022-12-03T00:10:03.690Z,84.46
2022-12-03T00:12:30.490Z,84.65
2022-12-03T00:14:57.380Z,84.34
2022-12-03T00:17:24.135Z,84.68
2022-12-03T00:19:50.806Z,85.15
2022-12-03T00:22:17.363Z,84.35
2022-12-03T00:24:43.967Z,84.63
2022-12-03T00:27:10.605Z,84.43
2022-12-03T00:29:38.437Z,85.43
2022-12-03T00:32:05.350Z,84.74
2022-12-03T00:34:31.942Z,84.82
2022-12-03T00:37:00.427Z,84.84
2022-12-03T00:39:27.169Z,84.75
2022-12-03T00:41:53.802Z,84.65
2022-12-03T00:44:20.409Z,85.69
2022-12-03T00:46:47.337Z,85.81
2022-12-03T00:49:14.071Z,85.35
2022-12-03T00:51:40.656Z,85.63
2022-12-03T00:54:07.553Z,85.11
2022-12-03T00:56:34.212Z,85.90
2022-12-03T00:59:00.947Z,84.88
2022-12-03T01:01:27.678Z,85.82
2022-12-03T01:03:54.407Z,85.55
2022-12-03T01:06:21.009Z,85.45
2022-12-03T01:08:47.580Z,85.47
2022-12-03T01:11:32.885Z,85.62
2022-12-03T01:13:59.501Z,85.42
2022-12-03T01:16:26.259Z,85.27
2022-12-03T01:18:53.020Z,84.89
2022-12-03T01:21:19.844Z,85.13
2022-12-03T01:23:46.836Z,84.78
2022-12-03T01:26:13.451Z,85.68
2022-12-03T01:28:41.975Z,85.10
2022-12-03T01:31:28.166Z,85.19
2022-12-03T01:33:55.381Z,84.75
2022-12-03T01:36:22.245Z,85.13
2022-12-03T01:38:48.894Z,85.03
2022-12-03T01:41:17.653Z,85.53
2022-12-03T01:43:45.108Z,85.07
2022-12-03T01:46:16.410Z,85.53
2022-12-03T01:48:43.610Z,84.31
2022-12-03T01:51:10.463Z,84.52
2022-12-03T01:53:37.088Z,85.24
2022-12-03T01:56:07.005Z,84.72
2022-12-03T01:58:33.671Z,84.61
2022-12-03T02:01:06.578Z,83.54
2022-12-03T02:03:33.342Z,84.03
2022-12-03T02:05:59.993Z,84.53
2022-12-03T02:08:26.613Z,84.29
2022-12-03T02:10:53.418Z,83.70
2022-12-03T02:13:20.445Z,83.82
2022-12-03T02:15:47.149Z,83.97
2022-12-03T02:18:13.993Z,83.86
2022-12-03T02:20:57.880Z,83.63
2022-12-03T02:23:40.997Z,83.24
2022-12-03T02:26:07.707Z,83.08
2022-12-03T02:28:34.619Z,83.47
2022-12-03T02:31:01.347Z,83.03
2022-12-03T02:33:28.170Z,83.19
2022-12-03T02:35:57.960Z,82.50
2022-12-03T02:38:30.037Z,83.08
2022-12-03T02:40:59.313Z,82.74
2022-12-03T02:43:27.295Z,82.31
2022-12-03T02:45:56.474Z,81.70
2022-12-03T02:48:34.112Z,82.17
2022-12-03T02:51:08.135Z,82.26
2022-12-03T02:53:45.020Z,82.13
2022-12-03T02:56:18.661Z,82.19
2022-12-03T02:58:48.318Z,82.73
2022-12-03T03:01:15.841Z,81.31
2022-12-03T03:03:44.597Z,81.41
2022-12-03T03:06:11.996Z,81.52
2022-12-03T03:08:40.177Z,81.49
2022-12-03T03:11:06.927Z,81.27
2022-12-03T03:13:35.597Z,81.98
2022-12-03T03:16:04.736Z,81.61
2022-12-03T03:18:33.002Z,81.11
2022-12-03T03:20:59.788Z,81.24
2022-12-03T03:23:26.839Z,81.40
2022-12-03T03:25:59.941Z,80.82
2022-12-03T03:28:28.568Z,81.60
2022-12-03T03:30:56.161Z,80.50
2022-12-03T03:33:23.032Z,80.96
2022-12-03T03:35:50.142Z,81.11
2022-12-03T03:38:19.632Z,81.80
2022-12-03T03:40:51.218Z,81.80
2022-12-03T03:43:20.125Z,81.60
2022-12-03T03:45:47.013Z,81.44
2022-12-03T03:48:14.903Z,80.20
2022-12-03T03:50:43.335Z,79.83
2022-12-03T03:53:11.777Z,81.09
2022-12-03T03:55:39.432Z,81.35
2022-12-03T03:58:06.233Z,81.76
2022-12-03T04:00:33.074Z,81.30
2022-12-03T04:02:59.705Z,81.47
2022-12-03T04:05:27.648Z,81.11
2022-12-03T04:07:54.460Z,81.96
2022-12-03T04:10:40.011Z,81.29
2022-12-03T04:13:06.651Z,80.83
2022-12-03T04:15:33.357Z,80.51
2022-12-03T04:18:18.680Z,80.02
2022-12-03T04:20:45.982Z,80.14
2022-12-03T04:23:13.508Z,80.02
2022-12-03T04:25:58.890Z,80.20
2022-12-03T04:28:44.376Z,80.02
2022-12-03T04:31:29.540Z,80.72
2022-12-03T04:34:14.690Z,80.02
2022-12-03T04:36:41.301Z,79.73
2022-12-03T04:39:08.788Z,79.57
2022-12-03T04:41:35.393Z,79.41
2022-12-03T04:44:20.727Z,79.33
2022-12-03T04:46:47.336Z,78.40
2022-12-03T04:49:14.206Z,78.18
2022-12-03T04:51:40.870Z,78.91
2022-12-03T04:54:07.509Z,79.57
2022-12-03T04:56:35.499Z,79.16
2022-12-03T04:59:02.100Z,78.32
2022-12-03T05:01:29.406Z,77.63
2022-12-03T05:03:56.199Z,78.40
2022-12-03T05:06:23.256Z,79.32
2022-12-03T05:08:50.078Z,78.43
2022-12-03T05:11:16.677Z,79.20
2022-12-03T05:13:43.419Z,79.32
2022-12-03T05:16:10.295Z,79.78
2022-12-03T05:18:37.140Z,81.17
2022-12-03T05:21:03.870Z,80.92
2022-12-03T05:23:32.109Z,81.00
2022-12-03T05:25:58.674Z,80.32
2022-12-03T05:28:25.437Z,81.25
2022-12-03T05:30:52.571Z,81.39
2022-12-03T05:33:19.271Z,82.32
2022-12-03T05:35:46.131Z,81.95
2022-12-03T05:38:12.898Z,80.99
2022-12-03T05:40:39.953Z,79.85
2022-12-03T05:43:06.759Z,78.92
2022-12-03T05:45:39.067Z,79.18
2022-12-03T05:48:08.623Z,79.37
2022-12-03T05:50:37.137Z,79.94
2022-12-03T05:53:17.303Z,80.34
2022-12-03T05:55:43.964Z,79.93
2022-12-03T05:58:11.626Z,80.25
2022-12-03T06:00:42.897Z,80.40
2022-12-03T06:03:10.726Z,80.16
2022-12-03T06:05:37.661Z,80.83
2022-12-03T06:08:04.478Z,80.90
2022-12-03T06:10:31.369Z,80.42
2022-12-03T06:12:58.735Z,80.31
2022-12-03T06:15:25.452Z,80.04
2022-12-03T06:17:52.308Z,80.93
2022-12-03T06:20:20.474Z,81.08
2022-12-03T06:22:47.800Z,80.44
2022-12-03T06:25:15.386Z,80.73
2022-12-03T06:27:42.722Z,80.89
2022-12-03T06:30:12.133Z,80.79
2022-12-03T06:32:38.771Z,80.34
2022-12-03T06:35:05.774Z,80.88
2022-12-03T06:37:33.027Z,80.89
2022-12-03T06:39:59.679Z,81.97
2022-12-03T06:42:26.326Z,81.68
2022-12-03T06:44:53.410Z,81.52
2022-12-03T06:47:20.424Z,82.12
2022-12-03T06:49:47.447Z,82.13
2022-12-03T06:52:14.192Z,82.88
2022-12-03T06:54:40.813Z,82.23
2022-12-03T06:57:07.467Z,80.10
2022-12-03T06:59:35.860Z,79.95
2022-12-03T07:02:02.725Z,80.10
2022-12-03T07:04:29.608Z,80.17
2022-12-03T07:06:56.420Z,80.01
2022-12-03T07:09:23.084Z,80.32
2022-12-03T07:11:49.661Z,80.16
2022-12-03T07:14:16.247Z,80.70
2022-12-03T07:16:43.692Z,79.97
2022-12-03T07:19:10.638Z,80.47
2022-12-03T07:21:37.888Z,80.29
2022-12-03T07:24:05.521Z,79.83
2022-12-03T07:26:32.562Z,79.92
2022-12-03T07:28:59.978Z,80.29
2022-12-03T07:31:26.939Z,80.35
2022-12-03T07:33:54.816Z,80.46
2022-12-03T07:36:21.488Z,80.20
2022-12-03T07:38:48.426Z,80.75
2022-12-03T07:41:15.654Z,80.30
2022-12-03T07:43:42.232Z,80.91
2022-12-03T07:46:08.856Z,80.59
2022-12-03T07:48:35.466Z,81.41
2022-12-03T07:51:02.193Z,80.71
2022-12-03T07:53:28.949Z,80.85
2022-12-03T07:55:55.594Z,81.48
2022-12-03T07:58:22.185Z,81.84
2022-12-03T08:00:48.861Z,81.53
2022-12-03T08:03:15.536Z,81.24
2022-12-03T08:05:42.127Z,81.37
2022-12-03T08:08:09.173Z,80.56
2022-12-03T08:10:37.058Z,79.96
2022-12-03T08:13:10.599Z,80.58
2022-12-03T08:15:39.683Z,79.98
2022-12-03T08:18:21.429Z,79.77
2022-12-03T08:20:51.853Z,80.36
2022-12-03T08:23:23.789Z,80.32
2022-12-03T08:25:55.058Z,80.44
2022-12-03T08:28:24.012Z,80.16
2022-12-03T08:31:07.461Z,80.42
2022-12-03T08:33:35.908Z,80.20
2022-12-03T08:36:21.088Z,79.90
2022-12-03T08:38:55.044Z,80.06
2022-12-03T08:41:40.793Z,79.00
2022-12-03T08:44:29.415Z,78.20
2022-12-03T08:47:10.241Z,77.76
2022-12-03T08:49:37.551Z,76.98
2022-12-03T08:52:15.077Z,77.34
2022-12-03T08:54:42.985Z,76.74
2022-12-03T08:57:29.624Z,76.62
2022-12-03T09:00:21.638Z,76.46
2022-12-03T09:02:52.808Z,75.14
2022-12-03T09:05:21.357Z,75.25
2022-12-03T09:07:48.111Z,75.36
2022-12-03T09:10:15.424Z,75.17
2022-12-03T09:12:42.033Z,73.12
2022-12-03T09:15:08.995Z,72.43
2022-12-03T09:17:35.739Z,72.87
2022-12-03T09:20:02.359Z,72.88
2022-12-03T09:22:29.887Z,72.18
2022-12-03T09:24:56.971Z,71.93
2022-12-03T09:27:24.176Z,72.46
2022-12-03T09:29:51.471Z,72.27
2022-12-03T09:32:18.929Z,72.97
2022-12-03T09:34:46.300Z,72.47
2022-12-03T09:37:12.915Z,72.70
2022-12-03T09:39:39.547Z,72.79
2022-12-03T09:42:06.160Z,72.74
2022-12-03T09:44:34.770Z,71.96
2022-12-03T09:47:02.993Z,71.62
2022-12-03T09:49:32.615Z,71.75
2022-12-03T09:52:02.849Z,70.71
2022-12-03T09:54:30.726Z,71.00
2022-12-03T09:56:59.432Z,70.83
2022-12-03T09:59:34.618Z,70.44
2022-12-03T10:02:02.543Z,70.47
2022-12-03T10:04:29.855Z,71.14
2022-12-03T10:06:58.673Z,69.86
2022-12-03T10:09:28.172Z,69.83
2022-12-03T10:11:57.171Z,69.68
2022-12-03T10:14:24.025Z,69.44
2022-12-03T10:16:50.875Z,69.94
2022-12-03T10:19:30.325Z,70.86
2022-12-03T10:21:57.072Z,71.41
2022-12-03T10:24:34.848Z,71.49
2022-12-03T10:27:21.443Z,71.35
2022-12-03T10:29:56.659Z,72.19
2022-12-03T10:32:44.563Z,72.33
2022-12-03T10:35:21.185Z,72.52
2022-12-03T10:38:07.873Z,72.53
2022-12-03T10:40:36.845Z,73.36
2022-12-03T10:43:19.744Z,74.41
2022-12-03T10:46:03.715Z,73.76
2022-12-03T10:49:08.011Z,73.83
2022-12-03T10:51:35.545Z,73.66
2022-12-03T10:54:03.400Z,73.47
2022-12-03T10:56:30.534Z,73.13
2022-12-03T10:58:57.467Z,73.30
2022-12-03T11:01:26.518Z,72.22
2022-12-03T11:04:04.456Z,72.19
2022-12-03T11:06:33.263Z,71.61
2022-12-03T11:09:05.303Z,72.15
2022-12-03T11:11:35.339Z,72.48
2022-12-03T11:14:03.943Z,74.60
2022-12-03T11:16:39.433Z,74.36
2022-12-03T11:19:12.136Z,74.75
2022-12-03T11:22:03.553Z,74.83
2022-12-03T11:24:34.491Z,76.52
2022-12-03T11:27:01.113Z,76.86
2022-12-03T11:29:50.938Z,76.18
2022-12-03T11:32:42.483Z,75.36
2022-12-03T11:35:35.819Z,75.99
2022-12-03T11:38:40.808Z,75.70
2022-12-03T11:41:25.572Z,75.49
2022-12-03T11:43:52.073Z,76.03
2022-12-03T11:46:43.841Z,75.86
2022-12-03T11:49:29.797Z,75.61
2022-12-03T11:51:58.542Z,74.99
2022-12-03T11:54:25.151Z,74.74
2022-12-03T11:56:52.953Z,76.03
2022-12-03T11:59:19.961Z,75.51
2022-12-03T12:01:47.408Z,75.07
2022-12-03T12:04:31.204Z,75.66
2022-12-03T12:06:58.551Z,76.00
2022-12-03T12:09:47.622Z,75.25
2022-12-03T12:12:31.283Z,75.41
2022-12-03T12:14:59.491Z,76.27
2022-12-03T12:17:36.734Z,74.71
2022-12-03T12:20:26.112Z,73.78
2022-12-03T12:22:54.963Z,72.63
2022-12-03T12:25:53.790Z,72.87
2022-12-03T12:28:20.932Z,72.68
2022-12-03T12:30:47.572Z,73.03
2022-12-03T12:33:20.795Z,71.39
2022-12-03T12:35:47.419Z,71.36
2022-12-03T12:38:20.219Z,71.87
2022-12-03T12:40:49.586Z,71.70
2022-12-03T12:43:27.553Z,72.58
2022-12-03T12:45:56.465Z,72.60
2022-12-03T12:48:33.902Z,72.08
2022-12-03T12:51:19.764Z,71.51
2022-12-03T12:53:47.752Z,71.37
2022-12-03T12:56:31.397Z,70.30
2022-12-03T12:59:09.297Z,71.86
2022-12-03T13:01:36.385Z,70.88
2022-12-03T13:04:11.685Z,71.14
2022-12-03T13:06:38.770Z,72.21
2022-12-03T13:09:13.228Z,72.16
2022-12-03T13:11:45.904Z,72.00
2022-12-03T13:14:18.113Z,70.92
2022-12-03T13:16:46.081Z,71.34
2022-12-03T13:19:23.802Z,71.70
2022-12-03T13:21:53.485Z,70.91
2022-12-03T13:24:43.006Z,71.82
2022-12-03T13:27:22.033Z,70.77
2022-12-03T13:30:00.637Z,71.50
2022-12-03T13:32:33.277Z,70.56
2022-12-03T13:35:08.185Z,70.07
2022-12-03T13:37:35.087Z,70.32
2022-12-03T13:40:27.452Z,69.87
2022-12-03T13:42:54.856Z,69.79
2022-12-03T13:45:24.560Z,69.43
2022-12-03T13:47:57.417Z,69.40
2022-12-03T13:50:41.906Z,70.45
2022-12-03T13:53:11.573Z,70.05
2022-12-03T13:55:46.610Z,70.98
2022-12-03T13:58:13.512Z,70.87
2022-12-03T14:00:40.186Z,71.15
2022-12-03T14:03:06.835Z,72.00
2022-12-03T14:05:33.453Z,70.83
2022-12-03T14:08:02.136Z,71.77
2022-12-03T14:10:29.502Z,71.34
2022-12-03T14:12:56.365Z,70.29
2022-12-03T14:15:23.395Z,70.65
2022-12-03T14:17:50.315Z,71.07
2022-12-03T14:20:17.624Z,72.15
2022-12-03T14:22:44.413Z,72.59
2022-12-03T14:25:14.530Z,72.50
2022-12-03T14:27:41.181Z,73.21
2022-12-03T14:30:08.619Z,73.13
2022-12-03T14:32:35.238Z,73.02
2022-12-03T14:35:06.566Z,72.43
2022-12-03T14:37:36.534Z,71.60
2022-12-03T14:40:03.813Z,70.70
2022-12-03T14:42:30.541Z,71.58
2022-12-03T14:44:57.391Z,72.61
2022-12-03T14:47:24.100Z,72.90
2022-12-03T14:49:53.137Z,73.12
2022-12-03T14:52:20.241Z,71.68
2022-12-03T14:54:46.985Z,71.22
2022-12-03T14:57:15.214Z,71.57
2022-12-03T14:59:42.969Z,72.09
2022-12-03T15:02:11.138Z,72.45
2022-12-03T15:04:38.808Z,72.68
2022-12-03T15:07:05.752Z,70.72
2022-12-03T15:09:32.526Z,71.11
2022-12-03T15:11:59.943Z,69.57
2022-12-03T15:14:26.881Z,70.59
2022-12-03T15:16:53.577Z,70.91
2022-12-03T15:19:20.387Z,70.30
2022-12-03T15:21:47.203Z,70.10
2022-12-03T15:24:13.863Z,71.00
2022-12-03T15:26:40.469Z,71.46
2022-12-03T15:29:07.049Z,72.05
2022-12-03T15:31:33.978Z,71.07
2022-12-03T15:34:00.811Z,71.46
2022-12-03T15:36:27.680Z,71.62
2022-12-03T15:38:54.520Z,71.48
2022-12-03T15:41:21.345Z,71.46
2022-12-03T15:43:48.993Z,71.62
2022-12-03T15:46:16.227Z,72.06
2022-12-03T15:48:43.234Z,72.21
2022-12-03T15:51:10.046Z,71.62
2022-12-03T15:53:36.949Z,70.75
2022-12-03T15:56:03.877Z,71.88
2022-12-03T15:58:30.505Z,72.10
2022-12-03T16:00:57.582Z,71.13
2022-12-03T16:03:24.458Z,70.86
2022-12-03T16:05:51.074Z,70.89
2022-12-03T16:08:17.771Z,70.74
2022-12-03T16:10:44.384Z,71.26
2022-12-03T16:13:11.005Z,71.71
2022-12-03T16:15:38.151Z,70.78
2022-12-03T16:18:05.938Z,72.06
2022-12-03T16:20:32.615Z,72.28
2022-12-03T16:22:59.271Z,72.67
2022-12-03T16:25:27.114Z,72.09
2022-12-03T16:27:53.744Z,72.26
2022-12-03T16:30:20.613Z,72.67
2022-12-03T16:32:47.798Z,71.70
2022-12-03T16:35:14.570Z,72.09
2022-12-03T16:37:41.150Z,71.65
2022-12-03T16:40:08.629Z,72.30
2022-12-03T16:42:37.161Z,72.13
2022-12-03T16:45:08.591Z,71.82
2022-12-03T16:47:35.384Z,72.22
2022-12-03T16:50:09.783Z,71.58
2022-12-03T16:52:38.339Z,72.08
2022-12-03T16:55:05.456Z,71.59
2022-12-03T16:57:34.014Z,71.09
2022-12-03T17:00:01.468Z,71.14
2022-12-03T17:02:31.077Z,72.06
2022-12-03T17:05:00.094Z,72.53
2022-12-03T17:07:26.864Z,72.45
2022-12-03T17:09:53.869Z,72.75
2022-12-03T17:12:20.865Z,71.88
2022-12-03T17:14:47.452Z,71.95
2022-12-03T17:17:14.159Z,72.00
2022-12-03T17:19:41.042Z,72.36
2022-12-03T17:22:09.210Z,71.99
2022-12-03T17:24:36.087Z,72.86
2022-12-03T17:27:02.744Z,72.49
2022-12-03T17:29:29.513Z,73.02
2022-12-03T17:31:56.155Z,72.45
2022-12-03T17:34:23.349Z,72.80
2022-12-03T17:36:50.053Z,72.81
2022-12-03T17:39:16.692Z,72.70
2022-12-03T17:41:43.289Z,71.86
2022-12-03T17:44:12.963Z,71.51
2022-12-03T17:46:41.806Z,71.13
2022-12-03T17:49:08.461Z,70.69
2022-12-03T17:51:35.067Z,72.38
2022-12-03T17:54:01.838Z,72.77
2022-12-03T17:56:28.541Z,71.97
2022-12-03T17:58:57.043Z,72.28
2022-12-03T18:01:23.744Z,72.62
2022-12-03T18:03:50.581Z,72.21
2022-12-03T18:06:17.267Z,71.70
2022-12-03T18:08:43.878Z,72.09
2022-12-03T18:11:10.726Z,71.71
2022-12-03T18:13:38.851Z,71.22
2022-12-03T18:16:05.804Z,71.41
2022-12-03T18:18:32.450Z,72.38
2022-12-03T18:21:04.128Z,72.55
2022-12-03T18:23:32.210Z,72.22
2022-12-03T18:25:59.529Z,71.72
2022-12-03T18:28:26.442Z,72.56
2022-12-03T18:30:53.157Z,72.38
2022-12-03T18:33:21.454Z,71.71
2022-12-03T18:35:48.219Z,71.18
2022-12-03T18:38:16.973Z,71.24
2022-12-03T18:40:44.857Z,71.50
2022-12-03T18:43:12.990Z,72.11
2022-12-03T18:45:40.408Z,72.07
2022-12-03T18:48:15.871Z,71.23
2022-12-03T18:50:44.004Z,71.35
2022-12-03T18:53:15.755Z,69.58
2022-12-03T18:55:44.232Z,70.69
2022-12-03T18:58:11.323Z,70.43
2022-12-03T19:00:38.334Z,70.62
2022-12-03T19:03:07.327Z,69.35
2022-12-03T19:05:35.185Z,70.38
2022-12-03T19:08:02.715Z,69.90
2022-12-03T19:10:29.698Z,71.39
2022-12-03T19:12:56.462Z,70.55
2022-12-03T19:15:24.010Z,71.44
2022-12-03T19:17:51.104Z,70.73
2022-12-03T19:20:17.952Z,70.89
2022-12-03T19:22:44.552Z,70.27
2022-12-03T19:25:11.168Z,70.76
2022-12-03T19:27:37.886Z,70.31
2022-12-03T19:30:05.321Z,70.53
2022-12-03T19:32:31.952Z,69.44
2022-12-03T19:34:58.824Z,70.53
2022-12-03T19:37:25.614Z,70.22
2022-12-03T19:39:54.184Z,69.95
2022-12-03T19:42:21.132Z,70.24
2022-12-03T19:44:47.743Z,71.43
2022-12-03T19:47:14.485Z,71.84
2022-12-03T19:49:41.230Z,71.12
2022-12-03T19:52:08.195Z,71.29
2022-12-03T19:54:34.925Z,70.75
2022-12-03T19:57:01.588Z,71.86
2022-12-03T19:59:28.279Z,70.04
2022-12-03T20:01:55.208Z,70.34
2022-12-03T20:04:21.981Z,72.09
2022-12-03T20:06:48.578Z,71.48
2022-12-03T20:09:18.037Z,70.97
2022-12-03T20:12:04.972Z,71.73
2022-12-03T20:14:31.884Z,70.85
2022-12-03T20:16:58.674Z,70.63
2022-12-03T20:19:25.361Z,70.63
2022-12-03T20:21:52.106Z,71.24
2022-12-03T20:24:19.337Z,70.55
2022-12-03T20:26:46.107Z,70.06
2022-12-03T20:29:13.053Z,70.52
2022-12-03T20:31:39.994Z,69.37
2022-12-03T20:34:07.217Z,69.90
2022-12-03T20:36:34.666Z,70.87
2022-12-03T20:39:04.602Z,70.93
2022-12-03T20:41:33.716Z,70.90
2022-12-03T20:44:00.387Z,70.50
2022-12-03T20:46:29.325Z,70.60
2022-12-03T20:48:57.131Z,69.97
2022-12-03T20:51:27.399Z,69.45
2022-12-03T20:53:54.746Z,70.16
2022-12-03T20:56:24.809Z,70.28
2022-12-03T20:58:53.494Z,70.08
2022-12-03T21:01:23.518Z,70.50
2022-12-03T21:03:51.840Z,71.77
2022-12-03T21:06:19.467Z,70.36
2022-12-03T21:08:46.436Z,69.81
2022-12-03T21:11:18.778Z,71.20
2022-12-03T21:13:46.448Z,71.60
2022-12-03T21:16:19.068Z,70.23
2022-12-03T21:18:46.348Z,69.86
2022-12-03T21:21:15.259Z,70.01
2022-12-03T21:23:43.034Z,70.35
2022-12-03T21:26:14.258Z,71.69
2022-12-03T21:28:43.268Z,71.82
2022-12-03T21:31:15.595Z,71.12
2022-12-03T21:33:42.879Z,70.51
2022-12-03T21:36:11.243Z,70.95
2022-12-03T21:38:38.091Z,70.37
2022-12-03T21:41:05.319Z,70.79
2022-12-03T21:43:32.515Z,71.09
2022-12-03T21:46:00.186Z,70.56
2022-12-03T21:48:28.849Z,69.93
2022-12-03T21:51:01.388Z,71.11
2022-12-03T21:53:30.020Z,71.33
2022-12-03T21:55:56.732Z,70.71
2022-12-03T21:58:23.401Z,71.09
2022-12-03T22:00:50.456Z,69.94
2022-12-03T22:03:17.844Z,70.31
2022-12-03T22:05:44.668Z,71.36
2022-12-03T22:08:12.688Z,71.39
2022-12-03T22:10:39.998Z,71.26
2022-12-03T22:13:06.690Z,71.41
2022-12-03T22:15:33.376Z,70.55
2022-12-03T22:18:00.084Z,70.75
2022-12-03T22:20:27.366Z,70.45
2022-12-03T22:22:54.401Z,71.01
2022-12-03T22:25:21.131Z,71.78
2022-12-03T22:27:47.951Z,72.37
2022-12-03T22:30:15.110Z,72.11
2022-12-03T22:32:41.871Z,71.57
2022-12-03T22:35:08.822Z,71.60
2022-12-03T22:37:35.513Z,70.00
2022-12-03T22:40:02.391Z,70.59
2022-12-03T22:42:30.078Z,69.70
2022-12-03T22:44:56.679Z,70.66
2022-12-03T22:47:23.244Z,70.56
2022-12-03T22:49:49.857Z,70.09
2022-12-03T22:52:16.522Z,70.30
2022-12-03T22:54:45.544Z,71.13
2022-12-03T22:57:12.681Z,70.40
2022-12-03T22:59:39.399Z,69.97
2022-12-03T23:02:06.104Z,69.98
2022-12-03T23:04:32.776Z,70.21
2022-12-03T23:06:59.382Z,70.71
2022-12-03T23:09:26.007Z,71.13
2022-12-03T23:11:52.611Z,70.40
2022-12-03T23:14:19.318Z,70.65
2022-12-03T23:16:45.961Z,70.13
2022-12-03T23:19:12.599Z,71.17
2022-12-03T23:21:39.715Z,70.73
2022-12-03T23:24:06.552Z,70.88
2022-12-03T23:26:35.658Z,70.67
2022-12-03T23:29:02.464Z,71.29
2022-12-03T23:31:31.714Z,71.63
2022-12-03T23:33:59.228Z,71.99
2022-12-03T23:36:27.782Z,72.09
2022-12-03T23:38:54.719Z,71.80
2022-12-03T23:41:23.240Z,70.38
2022-12-03T23:43:50.096Z,69.71
2022-12-03T23:46:19.880Z,70.49
2022-12-03T23:48:46.620Z,70.60
2022-12-03T23:51:16.044Z,70.90
2022-12-03T23:53:43.434Z,69.93
2022-12-03T23:56:15.538Z,71.06
2022-12-03T23:58:42.814Z,70.46
